sensor_id;sensor_type;location;lat;lon;timestamp;temperature;humidity
23411;DHT22;11878;51.774;7.220;2022-08-01T00:00:51;18.90;99.90
23411;DHT22;11878;51.774;7.220;2022-08-01T00:03:53;18.90;99.90
23411;DHT22;11878;51.774;7.220;2022-08-01T00:06:55;18.90;99.90
23411;DHT22;11878;51.774;7.220;2022-08-01T00:09:56;18.90;99.90
23411;DHT22;11878;51.774;7.220;2022-08-01T00:12:58;18.90;99.90
23411;DHT22;11878;51.774;7.220;2022-08-01T00:16:00;18.90;99.90
23411;DHT22;11878;51.774;7.220;2022-08-01T00:19:02;18.90;99.90
23411;DHT22;11878;51.774;7.220;2022-08-01T00:22:04;18.90;99.90
23411;DHT22;11878;51.774;7.220;2022-08-01T00:25:07;18.90;99.90
23411;DHT22;11878;51.774;7.220;2022-08-01T00:28:09;18.90;99.90
23411;DHT22;11878;51.774;7.220;2022-08-01T00:31:11;18.90;99.90
23411;DHT22;11878;51.774;7.220;2022-08-01T00:34:13;18.90;99.90
23411;DHT22;11878;51.774;7.220;2022-08-01T00:37:14;18.80;99.90
23411;DHT22;11878;51.774;7.220;2022-08-01T00:40:16;18.80;99.90
23411;DHT22;11878;51.774;7.220;2022-08-01T00:43:18;18.80;99.90
23411;DHT22;11878;51.774;7.220;2022-08-01T00:46:20;18.90;99.90
23411;DHT22;11878;51.774;7.220;2022-08-01T00:49:22;18.90;99.90
23411;DHT22;11878;51.774;7.220;2022-08-01T00:52:23;18.80;99.90
23411;DHT22;11878;51.774;7.220;2022-08-01T00:55:27;18.80;99.90
23411;DHT22;11878;51.774;7.220;2022-08-01T00:58:29;18.80;99.90
23411;DHT22;11878;51.774;7.220;2022-08-01T01:01:33;18.80;99.90
23411;DHT22;11878;51.774;7.220;2022-08-01T01:04:40;18.80;99.90
23411;DHT22;11878;51.774;7.220;2022-08-01T01:08:04;18.80;99.90
23411;DHT22;11878;51.774;7.220;2022-08-01T01:11:26;18.90;99.90
23411;DHT22;11878;51.774;7.220;2022-08-01T01:14:39;18.80;99.90
23411;DHT22;11878;51.774;7.220;2022-08-01T01:18:58;18.80;99.90
23411;DHT22;11878;51.774;7.220;2022-08-01T01:24:38;18.80;99.90
23411;DHT22;11878;51.774;7.220;2022-08-01T01:27:52;18.50;99.90
23411;DHT22;11878;51.774;7.220;2022-08-01T01:31:00;18.50;99.90
23411;DHT22;11878;51.774;7.220;2022-08-01T01:34:03;18.50;99.90
23411;DHT22;11878;51.774;7.220;2022-08-01T01:37:08;18.40;99.90
23411;DHT22;11878;51.774;7.220;2022-08-01T01:40:11;18.40;99.90
23411;DHT22;11878;51.774;7.220;2022-08-01T01:43:14;18.40;99.90
23411;DHT22;11878;51.774;7.220;2022-08-01T01:46:19;18.40;99.90
23411;DHT22;11878;51.774;7.220;2022-08-01T01:49:26;18.50;99.90
23411;DHT22;11878;51.774;7.220;2022-08-01T01:52:29;18.40;99.90
23411;DHT22;11878;51.774;7.220;2022-08-01T01:55:32;18.50;99.90
23411;DHT22;11878;51.774;7.220;2022-08-01T01:58:53;18.40;99.90
23411;DHT22;11878;51.774;7.220;2022-08-01T02:01:59;18.30;99.90
23411;DHT22;11878;51.774;7.220;2022-08-01T02:05:09;18.40;99.90
23411;DHT22;11878;51.774;7.220;2022-08-01T02:08:16;18.40;99.90
23411;DHT22;11878;51.774;7.220;2022-08-01T02:11:20;18.40;99.90
23411;DHT22;11878;51.774;7.220;2022-08-01T02:14:25;18.30;99.90
23411;DHT22;11878;51.774;7.220;2022-08-01T02:17:29;18.30;99.90
23411;DHT22;11878;51.774;7.220;2022-08-01T02:20:34;18.40;99.90
23411;DHT22;11878;51.774;7.220;2022-08-01T02:23:39;18.30;99.90
23411;DHT22;11878;51.774;7.220;2022-08-01T02:26:46;18.30;99.90
23411;DHT22;11878;51.774;7.220;2022-08-01T02:30:06;18.30;99.90
23411;DHT22;11878;51.774;7.220;2022-08-01T02:33:18;18.30;99.90
23411;DHT22;11878;51.774;7.220;2022-08-01T02:36:20;18.30;99.90
23411;DHT22;11878;51.774;7.220;2022-08-01T02:39:35;18.30;99.90
23411;DHT22;11878;51.774;7.220;2022-08-01T02:42:37;18.30;99.90
23411;DHT22;11878;51.774;7.220;2022-08-01T02:45:45;18.30;99.90
23411;DHT22;11878;51.774;7.220;2022-08-01T02:48:51;18.20;99.90
23411;DHT22;11878;51.774;7.220;2022-08-01T02:51:54;18.30;99.90
23411;DHT22;11878;51.774;7.220;2022-08-01T02:54:58;18.30;99.90
23411;DHT22;11878;51.774;7.220;2022-08-01T02:58:01;18.30;99.90
23411;DHT22;11878;51.774;7.220;2022-08-01T03:01:06;18.30;99.90
23411;DHT22;11878;51.774;7.220;2022-08-01T03:04:09;18.30;99.90
23411;DHT22;11878;51.774;7.220;2022-08-01T03:07:12;18.30;99.90
23411;DHT22;11878;51.774;7.220;2022-08-01T03:10:16;18.30;99.90
23411;DHT22;11878;51.774;7.220;2022-08-01T03:13:18;18.30;99.90
23411;DHT22;11878;51.774;7.220;2022-08-01T03:16:23;18.30;99.90
23411;DHT22;11878;51.774;7.220;2022-08-01T03:19:27;18.20;99.90
23411;DHT22;11878;51.774;7.220;2022-08-01T03:22:30;18.30;99.90
23411;DHT22;11878;51.774;7.220;2022-08-01T03:25:35;18.20;99.90
23411;DHT22;11878;51.774;7.220;2022-08-01T03:28:38;18.20;99.90
23411;DHT22;11878;51.774;7.220;2022-08-01T03:31:44;18.20;99.90
23411;DHT22;11878;51.774;7.220;2022-08-01T03:34:46;18.20;99.90
23411;DHT22;11878;51.774;7.220;2022-08-01T03:37:50;18.30;99.90
23411;DHT22;11878;51.774;7.220;2022-08-01T03:41:18;18.20;99.90
23411;DHT22;11878;51.774;7.220;2022-08-01T03:44:24;18.20;99.90
23411;DHT22;11878;51.774;7.220;2022-08-01T03:47:31;18.20;99.90
23411;DHT22;11878;51.774;7.220;2022-08-01T03:50:34;18.20;99.90
23411;DHT22;11878;51.774;7.220;2022-08-01T03:53:38;18.30;99.90
23411;DHT22;11878;51.774;7.220;2022-08-01T03:56:43;18.30;99.90
23411;DHT22;11878;51.774;7.220;2022-08-01T03:59:46;18.30;99.90
23411;DHT22;11878;51.774;7.220;2022-08-01T04:02:49;18.20;99.90
23411;DHT22;11878;51.774;7.220;2022-08-01T04:05:51;18.20;99.90
23411;DHT22;11878;51.774;7.220;2022-08-01T04:08:53;18.20;99.90
23411;DHT22;11878;51.774;7.220;2022-08-01T04:11:59;18.20;99.90
23411;DHT22;11878;51.774;7.220;2022-08-01T04:15:10;18.20;99.90
23411;DHT22;11878;51.774;7.220;2022-08-01T04:18:12;18.20;99.90
23411;DHT22;11878;51.774;7.220;2022-08-01T04:21:16;18.20;99.90
23411;DHT22;11878;51.774;7.220;2022-08-01T04:24:20;18.20;99.90
23411;DHT22;11878;51.774;7.220;2022-08-01T04:27:29;18.20;99.90
23411;DHT22;11878;51.774;7.220;2022-08-01T04:30:54;18.20;99.90
23411;DHT22;11878;51.774;7.220;2022-08-01T04:34:04;18.20;99.90
23411;DHT22;11878;51.774;7.220;2022-08-01T04:37:09;18.20;99.90
23411;DHT22;11878;51.774;7.220;2022-08-01T04:40:14;18.20;99.90
23411;DHT22;11878;51.774;7.220;2022-08-01T04:43:17;18.30;99.90
23411;DHT22;11878;51.774;7.220;2022-08-01T04:46:20;18.30;99.90
23411;DHT22;11878;51.774;7.220;2022-08-01T04:49:24;18.30;99.90
23411;DHT22;11878;51.774;7.220;2022-08-01T04:52:36;18.30;99.90
23411;DHT22;11878;51.774;7.220;2022-08-01T04:55:38;18.30;99.90
23411;DHT22;11878;51.774;7.220;2022-08-01T04:58:41;18.40;99.90
23411;DHT22;11878;51.774;7.220;2022-08-01T05:01:48;18.30;99.90
23411;DHT22;11878;51.774;7.220;2022-08-01T05:04:50;18.40;99.90
23411;DHT22;11878;51.774;7.220;2022-08-01T05:07:51;18.40;99.90
23411;DHT22;11878;51.774;7.220;2022-08-01T05:10:53;18.40;99.90
23411;DHT22;11878;51.774;7.220;2022-08-01T05:13:55;18.40;99.90
23411;DHT22;11878;51.774;7.220;2022-08-01T05:16:57;18.30;99.90
23411;DHT22;11878;51.774;7.220;2022-08-01T05:20:00;18.40;99.90
23411;DHT22;11878;51.774;7.220;2022-08-01T05:23:02;18.40;99.90
23411;DHT22;11878;51.774;7.220;2022-08-01T05:26:04;18.40;99.90
23411;DHT22;11878;51.774;7.220;2022-08-01T05:29:06;18.50;99.90
23411;DHT22;11878;51.774;7.220;2022-08-01T05:32:08;18.50;99.90
23411;DHT22;11878;51.774;7.220;2022-08-01T05:35:10;18.50;99.90
23411;DHT22;11878;51.774;7.220;2022-08-01T05:38:12;18.50;99.90
23411;DHT22;11878;51.774;7.220;2022-08-01T05:41:15;18.50;99.90
23411;DHT22;11878;51.774;7.220;2022-08-01T05:44:17;18.50;99.90
23411;DHT22;11878;51.774;7.220;2022-08-01T05:47:19;18.40;99.90
23411;DHT22;11878;51.774;7.220;2022-08-01T05:50:20;18.50;99.90
23411;DHT22;11878;51.774;7.220;2022-08-01T05:53:22;18.60;99.90
23411;DHT22;11878;51.774;7.220;2022-08-01T05:56:24;18.70;99.90
23411;DHT22;11878;51.774;7.220;2022-08-01T05:59:32;18.70;99.90
23411;DHT22;11878;51.774;7.220;2022-08-01T06:02:34;18.70;99.90
23411;DHT22;11878;51.774;7.220;2022-08-01T06:05:40;18.80;99.90
23411;DHT22;11878;51.774;7.220;2022-08-01T06:08:42;18.80;99.90
23411;DHT22;11878;51.774;7.220;2022-08-01T06:11:44;18.70;99.90
23411;DHT22;11878;51.774;7.220;2022-08-01T06:14:46;18.80;99.90
23411;DHT22;11878;51.774;7.220;2022-08-01T06:17:48;18.80;99.90
23411;DHT22;11878;51.774;7.220;2022-08-01T06:20:49;18.80;99.90
23411;DHT22;11878;51.774;7.220;2022-08-01T06:23:51;18.80;99.90
23411;DHT22;11878;51.774;7.220;2022-08-01T06:26:53;18.80;99.90
23411;DHT22;11878;51.774;7.220;2022-08-01T06:29:54;18.80;99.90
23411;DHT22;11878;51.774;7.220;2022-08-01T06:32:57;18.80;99.90
23411;DHT22;11878;51.774;7.220;2022-08-01T06:36:01;18.80;99.90
23411;DHT22;11878;51.774;7.220;2022-08-01T06:39:03;18.80;99.90
23411;DHT22;11878;51.774;7.220;2022-08-01T06:42:05;18.80;99.90
23411;DHT22;11878;51.774;7.220;2022-08-01T06:45:09;18.80;99.90
23411;DHT22;11878;51.774;7.220;2022-08-01T06:48:11;18.80;99.90
23411;DHT22;11878;51.774;7.220;2022-08-01T06:51:12;18.90;99.90
23411;DHT22;11878;51.774;7.220;2022-08-01T06:54:22;19.10;99.90
23411;DHT22;11878;51.774;7.220;2022-08-01T06:57:23;19.10;99.90
23411;DHT22;11878;51.774;7.220;2022-08-01T07:00:26;19.10;99.90
23411;DHT22;11878;51.774;7.220;2022-08-01T07:03:28;19.20;99.90
23411;DHT22;11878;51.774;7.220;2022-08-01T07:06:50;19.10;99.90
23411;DHT22;11878;51.774;7.220;2022-08-01T07:09:51;19.10;99.90
23411;DHT22;11878;51.774;7.220;2022-08-01T07:12:53;19.10;99.90
23411;DHT22;11878;51.774;7.220;2022-08-01T07:15:55;19.10;99.90
23411;DHT22;11878;51.774;7.220;2022-08-01T07:18:57;19.10;99.90
23411;DHT22;11878;51.774;7.220;2022-08-01T07:21:58;19.10;99.90
23411;DHT22;11878;51.774;7.220;2022-08-01T07:25:00;19.10;99.90
23411;DHT22;11878;51.774;7.220;2022-08-01T07:28:02;19.20;99.90
23411;DHT22;11878;51.774;7.220;2022-08-01T07:31:04;19.20;99.90
23411;DHT22;11878;51.774;7.220;2022-08-01T07:34:06;19.10;99.90
23411;DHT22;11878;51.774;7.220;2022-08-01T07:37:08;19.20;99.90
23411;DHT22;11878;51.774;7.220;2022-08-01T07:40:10;19.30;99.90
23411;DHT22;11878;51.774;7.220;2022-08-01T07:43:12;19.40;99.90
23411;DHT22;11878;51.774;7.220;2022-08-01T07:46:14;19.60;99.90
23411;DHT22;11878;51.774;7.220;2022-08-01T07:49:15;19.70;99.90
23411;DHT22;11878;51.774;7.220;2022-08-01T07:52:17;19.70;99.90
23411;DHT22;11878;51.774;7.220;2022-08-01T07:55:20;19.80;99.90
23411;DHT22;11878;51.774;7.220;2022-08-01T07:58:22;19.90;99.90
23411;DHT22;11878;51.774;7.220;2022-08-01T08:01:23;19.80;99.90
23411;DHT22;11878;51.774;7.220;2022-08-01T08:04:26;19.80;99.90
23411;DHT22;11878;51.774;7.220;2022-08-01T08:07:28;19.80;99.90
23411;DHT22;11878;51.774;7.220;2022-08-01T08:10:30;19.90;99.90
23411;DHT22;11878;51.774;7.220;2022-08-01T08:13:32;19.70;99.90
23411;DHT22;11878;51.774;7.220;2022-08-01T08:16:33;19.90;99.90
23411;DHT22;11878;51.774;7.220;2022-08-01T08:19:35;20.10;99.90
23411;DHT22;11878;51.774;7.220;2022-08-01T08:22:39;20.40;99.90
23411;DHT22;11878;51.774;7.220;2022-08-01T08:25:41;20.50;99.90
23411;DHT22;11878;51.774;7.220;2022-08-01T08:28:43;20.50;99.90
23411;DHT22;11878;51.774;7.220;2022-08-01T08:31:45;20.50;99.90
23411;DHT22;11878;51.774;7.220;2022-08-01T08:34:53;20.40;99.90
23411;DHT22;11878;51.774;7.220;2022-08-01T08:37:55;20.40;99.90
23411;DHT22;11878;51.774;7.220;2022-08-01T08:40:59;20.30;99.90
23411;DHT22;11878;51.774;7.220;2022-08-01T08:44:03;20.40;99.90
23411;DHT22;11878;51.774;7.220;2022-08-01T08:47:05;20.50;99.90
23411;DHT22;11878;51.774;7.220;2022-08-01T08:50:10;20.80;99.90
23411;DHT22;11878;51.774;7.220;2022-08-01T08:53:13;20.70;99.90
23411;DHT22;11878;51.774;7.220;2022-08-01T08:56:20;20.20;99.90
23411;DHT22;11878;51.774;7.220;2022-08-01T08:59:22;19.90;99.90
23411;DHT22;11878;51.774;7.220;2022-08-01T09:02:26;20.10;99.90
23411;DHT22;11878;51.774;7.220;2022-08-01T09:05:27;19.70;99.90
23411;DHT22;11878;51.774;7.220;2022-08-01T09:08:40;19.70;99.90
23411;DHT22;11878;51.774;7.220;2022-08-01T09:11:42;19.60;99.90
23411;DHT22;11878;51.774;7.220;2022-08-01T09:14:57;19.60;99.90
23411;DHT22;11878;51.774;7.220;2022-08-01T09:17:59;19.60;99.90
23411;DHT22;11878;51.774;7.220;2022-08-01T09:21:19;19.90;99.90
23411;DHT22;11878;51.774;7.220;2022-08-01T09:24:21;20.20;99.90
23411;DHT22;11878;51.774;7.220;2022-08-01T09:27:31;20.10;99.90
23411;DHT22;11878;51.774;7.220;2022-08-01T09:30:38;20.10;99.90
23411;DHT22;11878;51.774;7.220;2022-08-01T09:34:00;20.10;99.90
23411;DHT22;11878;51.774;7.220;2022-08-01T09:37:05;20.30;99.90
23411;DHT22;11878;51.774;7.220;2022-08-01T09:40:08;20.50;99.90
23411;DHT22;11878;51.774;7.220;2022-08-01T09:43:11;20.60;99.90
23411;DHT22;11878;51.774;7.220;2022-08-01T09:46:16;20.40;99.90
23411;DHT22;11878;51.774;7.220;2022-08-01T09:49:29;20.20;99.90
23411;DHT22;11878;51.774;7.220;2022-08-01T09:52:54;20.30;99.90
23411;DHT22;11878;51.774;7.220;2022-08-01T09:56:09;20.50;99.90
23411;DHT22;11878;51.774;7.220;2022-08-01T09:59:12;20.20;99.90
23411;DHT22;11878;51.774;7.220;2022-08-01T10:02:33;20.10;99.90
23411;DHT22;11878;51.774;7.220;2022-08-01T10:05:36;20.20;99.90
23411;DHT22;11878;51.774;7.220;2022-08-01T10:08:48;20.50;99.90
23411;DHT22;11878;51.774;7.220;2022-08-01T10:11:50;20.50;99.90
23411;DHT22;11878;51.774;7.220;2022-08-01T10:14:52;20.40;99.90
23411;DHT22;11878;51.774;7.220;2022-08-01T10:17:59;20.30;99.90
23411;DHT22;11878;51.774;7.220;2022-08-01T10:21:03;20.30;99.90
23411;DHT22;11878;51.774;7.220;2022-08-01T10:24:11;20.30;99.90
23411;DHT22;11878;51.774;7.220;2022-08-01T10:27:15;20.20;99.90
23411;DHT22;11878;51.774;7.220;2022-08-01T10:30:37;20.20;99.90
23411;DHT22;11878;51.774;7.220;2022-08-01T10:33:42;20.30;99.90
23411;DHT22;11878;51.774;7.220;2022-08-01T10:36:53;20.50;99.90
23411;DHT22;11878;51.774;7.220;2022-08-01T10:39:57;20.30;99.90
23411;DHT22;11878;51.774;7.220;2022-08-01T10:43:18;20.40;99.90
23411;DHT22;11878;51.774;7.220;2022-08-01T10:46:22;20.90;99.90
23411;DHT22;11878;51.774;7.220;2022-08-01T10:49:29;20.80;99.90
23411;DHT22;11878;51.774;7.220;2022-08-01T10:52:32;20.60;99.90
23411;DHT22;11878;51.774;7.220;2022-08-01T10:58:48;21.60;99.90
23411;DHT22;11878;51.774;7.220;2022-08-01T11:02:01;21.80;99.90
23411;DHT22;11878;51.774;7.220;2022-08-01T11:05:12;22.10;99.90
23411;DHT22;11878;51.774;7.220;2022-08-01T11:08:22;22.40;99.90
23411;DHT22;11878;51.774;7.220;2022-08-01T11:11:24;22.60;99.90
23411;DHT22;11878;51.774;7.220;2022-08-01T11:14:26;22.40;99.90
23411;DHT22;11878;51.774;7.220;2022-08-01T11:17:48;22.60;99.90
23411;DHT22;11878;51.774;7.220;2022-08-01T11:20:58;22.10;99.90
23411;DHT22;11878;51.774;7.220;2022-08-01T11:34:18;22.10;99.90
23411;DHT22;11878;51.774;7.220;2022-08-01T11:37:27;22.10;99.90
23411;DHT22;11878;51.774;7.220;2022-08-01T11:40:32;21.90;99.90
23411;DHT22;11878;51.774;7.220;2022-08-01T11:43:34;21.60;99.90
23411;DHT22;11878;51.774;7.220;2022-08-01T11:47:02;21.50;99.90
23411;DHT22;11878;51.774;7.220;2022-08-01T11:53:30;21.50;99.90
23411;DHT22;11878;51.774;7.220;2022-08-01T11:56:34;21.40;99.90
23411;DHT22;11878;51.774;7.220;2022-08-01T12:00:10;21.30;99.90
23411;DHT22;11878;51.774;7.220;2022-08-01T12:06:34;21.70;99.90
23411;DHT22;11878;51.774;7.220;2022-08-01T12:09:36;21.40;99.90
23411;DHT22;11878;51.774;7.220;2022-08-01T12:12:50;21.50;99.90
23411;DHT22;11878;51.774;7.220;2022-08-01T12:15:52;21.60;99.90
23411;DHT22;11878;51.774;7.220;2022-08-01T12:18:57;21.40;99.90
23411;DHT22;11878;51.774;7.220;2022-08-01T12:22:10;21.50;99.90
23411;DHT22;11878;51.774;7.220;2022-08-01T12:25:17;21.60;99.90
23411;DHT22;11878;51.774;7.220;2022-08-01T12:28:19;21.80;99.90
23411;DHT22;11878;51.774;7.220;2022-08-01T12:31:31;21.70;99.90
23411;DHT22;11878;51.774;7.220;2022-08-01T12:34:32;21.80;99.90
23411;DHT22;11878;51.774;7.220;2022-08-01T12:37:39;22.00;99.90
23411;DHT22;11878;51.774;7.220;2022-08-01T12:40:43;22.00;99.90
23411;DHT22;11878;51.774;7.220;2022-08-01T12:43:46;22.30;99.90
23411;DHT22;11878;51.774;7.220;2022-08-01T12:46:49;22.40;99.90
23411;DHT22;11878;51.774;7.220;2022-08-01T12:49:51;22.40;99.90
23411;DHT22;11878;51.774;7.220;2022-08-01T12:52:53;22.30;99.90
23411;DHT22;11878;51.774;7.220;2022-08-01T12:55:55;22.50;99.90
23411;DHT22;11878;51.774;7.220;2022-08-01T12:59:00;22.30;99.90
23411;DHT22;11878;51.774;7.220;2022-08-01T13:02:08;22.40;99.90
23411;DHT22;11878;51.774;7.220;2022-08-01T13:05:11;22.10;99.90
23411;DHT22;11878;51.774;7.220;2022-08-01T13:08:16;22.10;99.90
23411;DHT22;11878;51.774;7.220;2022-08-01T13:11:18;22.00;99.90
23411;DHT22;11878;51.774;7.220;2022-08-01T13:14:28;22.20;99.90
23411;DHT22;11878;51.774;7.220;2022-08-01T13:17:32;22.30;99.90
23411;DHT22;11878;51.774;7.220;2022-08-01T13:20:34;22.00;99.90
23411;DHT22;11878;51.774;7.220;2022-08-01T13:23:37;22.10;99.90
23411;DHT22;11878;51.774;7.220;2022-08-01T13:27:02;22.10;99.90
23411;DHT22;11878;51.774;7.220;2022-08-01T13:30:15;22.20;99.90
23411;DHT22;11878;51.774;7.220;2022-08-01T13:33:17;22.10;99.90
23411;DHT22;11878;51.774;7.220;2022-08-01T13:36:19;22.20;99.90
23411;DHT22;11878;51.774;7.220;2022-08-01T13:39:29;22.10;99.90
23411;DHT22;11878;51.774;7.220;2022-08-01T13:42:43;22.40;99.90
23411;DHT22;11878;51.774;7.220;2022-08-01T13:45:45;22.40;99.90
23411;DHT22;11878;51.774;7.220;2022-08-01T13:48:47;22.30;99.90
23411;DHT22;11878;51.774;7.220;2022-08-01T13:51:50;22.40;99.90
23411;DHT22;11878;51.774;7.220;2022-08-01T13:54:52;22.50;99.90
23411;DHT22;11878;51.774;7.220;2022-08-01T13:57:54;22.30;99.90
23411;DHT22;11878;51.774;7.220;2022-08-01T14:00:56;22.60;99.90
23411;DHT22;11878;51.774;7.220;2022-08-01T14:03:57;22.60;99.90
23411;DHT22;11878;51.774;7.220;2022-08-01T14:07:00;22.30;99.90
23411;DHT22;11878;51.774;7.220;2022-08-01T14:10:10;22.30;99.90
23411;DHT22;11878;51.774;7.220;2022-08-01T14:13:21;22.20;99.90
23411;DHT22;11878;51.774;7.220;2022-08-01T14:16:24;22.30;99.90
23411;DHT22;11878;51.774;7.220;2022-08-01T14:19:26;22.20;99.90
23411;DHT22;11878;51.774;7.220;2022-08-01T14:22:40;22.20;99.90
23411;DHT22;11878;51.774;7.220;2022-08-01T14:25:42;22.40;99.90
23411;DHT22;11878;51.774;7.220;2022-08-01T14:29:03;22.50;99.90
23411;DHT22;11878;51.774;7.220;2022-08-01T14:32:05;22.50;99.90
23411;DHT22;11878;51.774;7.220;2022-08-01T14:35:08;22.50;99.90
23411;DHT22;11878;51.774;7.220;2022-08-01T14:38:09;22.40;99.90
23411;DHT22;11878;51.774;7.220;2022-08-01T14:41:11;22.20;99.90
23411;DHT22;11878;51.774;7.220;2022-08-01T14:44:13;22.40;99.90
23411;DHT22;11878;51.774;7.220;2022-08-01T14:47:15;22.70;99.90
23411;DHT22;11878;51.774;7.220;2022-08-01T14:50:23;22.70;99.90
23411;DHT22;11878;51.774;7.220;2022-08-01T14:53:25;22.80;99.90
23411;DHT22;11878;51.774;7.220;2022-08-01T14:56:27;22.70;99.90
23411;DHT22;11878;51.774;7.220;2022-08-01T14:59:29;22.50;99.90
23411;DHT22;11878;51.774;7.220;2022-08-01T15:02:30;22.50;99.90
23411;DHT22;11878;51.774;7.220;2022-08-01T15:05:32;22.50;99.90
23411;DHT22;11878;51.774;7.220;2022-08-01T15:08:34;22.50;99.90
23411;DHT22;11878;51.774;7.220;2022-08-01T15:11:36;22.50;99.90
23411;DHT22;11878;51.774;7.220;2022-08-01T15:14:38;22.30;99.90
23411;DHT22;11878;51.774;7.220;2022-08-01T15:17:49;22.50;99.90
23411;DHT22;11878;51.774;7.220;2022-08-01T15:20:51;22.40;99.90
23411;DHT22;11878;51.774;7.220;2022-08-01T15:23:52;22.50;99.90
23411;DHT22;11878;51.774;7.220;2022-08-01T15:26:54;22.50;99.90
23411;DHT22;11878;51.774;7.220;2022-08-01T15:29:56;22.40;99.90
23411;DHT22;11878;51.774;7.220;2022-08-01T15:32:58;22.30;99.90
23411;DHT22;11878;51.774;7.220;2022-08-01T15:36:00;22.30;99.90
23411;DHT22;11878;51.774;7.220;2022-08-01T15:39:02;22.10;99.90
23411;DHT22;11878;51.774;7.220;2022-08-01T15:42:07;22.20;99.90
23411;DHT22;11878;51.774;7.220;2022-08-01T15:45:10;22.10;99.90
23411;DHT22;11878;51.774;7.220;2022-08-01T15:48:34;22.10;99.90
23411;DHT22;11878;51.774;7.220;2022-08-01T15:51:40;22.20;99.90
23411;DHT22;11878;51.774;7.220;2022-08-01T15:54:42;22.40;99.90
23411;DHT22;11878;51.774;7.220;2022-08-01T15:57:44;22.40;99.90
23411;DHT22;11878;51.774;7.220;2022-08-01T16:00:45;22.40;99.90
23411;DHT22;11878;51.774;7.220;2022-08-01T16:03:47;22.30;99.90
23411;DHT22;11878;51.774;7.220;2022-08-01T16:06:49;22.20;99.90
23411;DHT22;11878;51.774;7.220;2022-08-01T16:09:51;22.00;99.90
23411;DHT22;11878;51.774;7.220;2022-08-01T16:12:53;21.90;99.90
23411;DHT22;11878;51.774;7.220;2022-08-01T16:15:54;22.00;99.90
23411;DHT22;11878;51.774;7.220;2022-08-01T16:18:56;22.20;99.90
23411;DHT22;11878;51.774;7.220;2022-08-01T16:21:58;22.20;99.90
23411;DHT22;11878;51.774;7.220;2022-08-01T16:25:00;22.30;99.90
23411;DHT22;11878;51.774;7.220;2022-08-01T16:28:01;22.30;99.90
23411;DHT22;11878;51.774;7.220;2022-08-01T16:31:04;22.30;99.90
23411;DHT22;11878;51.774;7.220;2022-08-01T16:34:26;22.20;99.90
23411;DHT22;11878;51.774;7.220;2022-08-01T16:37:29;22.30;99.90
23411;DHT22;11878;51.774;7.220;2022-08-01T16:40:32;22.50;99.90
23411;DHT22;11878;51.774;7.220;2022-08-01T16:43:48;22.40;99.90
23411;DHT22;11878;51.774;7.220;2022-08-01T16:46:55;22.10;99.90
23411;DHT22;11878;51.774;7.220;2022-08-01T16:49:56;22.30;99.90
23411;DHT22;11878;51.774;7.220;2022-08-01T16:52:58;22.20;99.90
23411;DHT22;11878;51.774;7.220;2022-08-01T16:56:00;22.20;99.90
23411;DHT22;11878;51.774;7.220;2022-08-01T16:59:02;21.00;99.90
23411;DHT22;11878;51.774;7.220;2022-08-01T17:02:04;22.10;99.90
23411;DHT22;11878;51.774;7.220;2022-08-01T17:05:07;22.00;99.90
23411;DHT22;11878;51.774;7.220;2022-08-01T17:08:13;22.00;99.90
23411;DHT22;11878;51.774;7.220;2022-08-01T17:11:15;21.90;99.90
23411;DHT22;11878;51.774;7.220;2022-08-01T17:14:16;22.10;99.90
23411;DHT22;11878;51.774;7.220;2022-08-01T17:17:18;22.20;99.90
23411;DHT22;11878;51.774;7.220;2022-08-01T17:20:21;21.20;99.90
23411;DHT22;11878;51.774;7.220;2022-08-01T17:23:23;22.40;99.90
23411;DHT22;11878;51.774;7.220;2022-08-01T17:26:25;22.90;99.90
23411;DHT22;11878;51.774;7.220;2022-08-01T17:29:27;22.80;99.30
23411;DHT22;11878;51.774;7.220;2022-08-01T17:32:44;22.60;99.00
23411;DHT22;11878;51.774;7.220;2022-08-01T17:35:48;22.50;99.50
23411;DHT22;11878;51.774;7.220;2022-08-01T17:38:50;22.10;99.90
23411;DHT22;11878;51.774;7.220;2022-08-01T17:41:52;22.10;99.90
23411;DHT22;11878;51.774;7.220;2022-08-01T17:44:53;22.00;99.90
23411;DHT22;11878;51.774;7.220;2022-08-01T17:47:57;21.80;99.90
23411;DHT22;11878;51.774;7.220;2022-08-01T17:50:59;21.70;99.90
23411;DHT22;11878;51.774;7.220;2022-08-01T17:54:01;21.70;99.90
23411;DHT22;11878;51.774;7.220;2022-08-01T17:57:02;21.70;99.90
23411;DHT22;11878;51.774;7.220;2022-08-01T18:00:09;21.70;99.90
23411;DHT22;11878;51.774;7.220;2022-08-01T18:03:11;21.50;99.90
23411;DHT22;11878;51.774;7.220;2022-08-01T18:06:15;21.40;99.90
23411;DHT22;11878;51.774;7.220;2022-08-01T18:09:23;21.40;99.90
23411;DHT22;11878;51.774;7.220;2022-08-01T18:12:26;21.30;99.90
23411;DHT22;11878;51.774;7.220;2022-08-01T18:15:28;21.20;99.90
23411;DHT22;11878;51.774;7.220;2022-08-01T18:18:33;21.10;99.90
23411;DHT22;11878;51.774;7.220;2022-08-01T18:21:35;21.10;99.90
23411;DHT22;11878;51.774;7.220;2022-08-01T18:24:43;20.90;99.90
23411;DHT22;11878;51.774;7.220;2022-08-01T18:27:45;20.90;99.90
23411;DHT22;11878;51.774;7.220;2022-08-01T18:31:08;20.70;99.90
23411;DHT22;11878;51.774;7.220;2022-08-01T18:34:10;20.60;99.90
23411;DHT22;11878;51.774;7.220;2022-08-01T18:37:12;20.60;99.90
23411;DHT22;11878;51.774;7.220;2022-08-01T18:40:16;20.60;99.90
23411;DHT22;11878;51.774;7.220;2022-08-01T18:43:23;20.50;99.90
23411;DHT22;11878;51.774;7.220;2022-08-01T18:46:25;20.40;99.90
23411;DHT22;11878;51.774;7.220;2022-08-01T18:49:28;20.40;99.90
23411;DHT22;11878;51.774;7.220;2022-08-01T18:52:30;20.30;99.90
23411;DHT22;11878;51.774;7.220;2022-08-01T18:55:32;20.20;99.90
23411;DHT22;11878;51.774;7.220;2022-08-01T18:58:34;20.20;99.90
23411;DHT22;11878;51.774;7.220;2022-08-01T19:01:36;20.20;99.90
23411;DHT22;11878;51.774;7.220;2022-08-01T19:04:38;20.20;99.90
23411;DHT22;11878;51.774;7.220;2022-08-01T19:07:39;20.10;99.90
23411;DHT22;11878;51.774;7.220;2022-08-01T19:11:01;19.90;99.90
23411;DHT22;11878;51.774;7.220;2022-08-01T19:14:03;19.80;99.90
23411;DHT22;11878;51.774;7.220;2022-08-01T19:17:05;19.70;99.90
23411;DHT22;11878;51.774;7.220;2022-08-01T19:20:07;19.60;99.90
23411;DHT22;11878;51.774;7.220;2022-08-01T19:23:09;19.50;99.90
23411;DHT22;11878;51.774;7.220;2022-08-01T19:26:32;19.40;99.90
23411;DHT22;11878;51.774;7.220;2022-08-01T19:29:36;19.40;99.90
23411;DHT22;11878;51.774;7.220;2022-08-01T19:32:38;19.40;99.90
23411;DHT22;11878;51.774;7.220;2022-08-01T19:35:42;19.30;99.90
23411;DHT22;11878;51.774;7.220;2022-08-01T19:38:44;19.20;99.90
23411;DHT22;11878;51.774;7.220;2022-08-01T19:41:51;19.00;99.90
23411;DHT22;11878;51.774;7.220;2022-08-01T19:44:53;18.90;99.90
23411;DHT22;11878;51.774;7.220;2022-08-01T19:47:55;18.80;99.90
23411;DHT22;11878;51.774;7.220;2022-08-01T19:50:59;18.80;99.90